createdAt,value
2023-04-22T04:32:58.310Z,94.40
2023-04-22T04:35:26.411Z,94.60
2023-04-22T04:37:53.845Z,94.60
2023-04-22T04:40:22.021Z,94.60
2023-04-22T04:42:49.056Z,94.60
2023-04-22T04:45:17.022Z,94.40
2023-04-22T04:47:44.074Z,94.50
2023-04-22T04:50:11.755Z,94.40
2023-04-22T04:52:38.848Z,94.40
2023-04-22T04:55:06.022Z,94.30
2023-04-22T04:57:33.010Z,94.30
2023-04-22T04:59:59.998Z,94.40
2023-04-22T05:02:27.182Z,94.40
2023-04-22T05:04:54.306Z,94.60
2023-04-22T05:07:21.247Z,94.60
2023-04-22T05:09:48.305Z,94.70
2023-04-22T05:12:15.370Z,94.60
2023-04-22T05:14:42.523Z,94.70
2023-04-22T05:17:09.644Z,94.70
2023-04-22T05:19:36.602Z,94.90
2023-04-22T05:22:03.663Z,94.80
2023-04-22T05:24:30.744Z,95.00
2023-04-22T05:26:57.692Z,94.70
2023-04-22T05:29:24.729Z,95.00
2023-04-22T05:31:51.893Z,95.10
2023-04-22T05:34:18.930Z,95.00
2023-04-22T05:36:46.053Z,95.00
2023-04-22T05:39:13.157Z,95.10
2023-04-22T05:41:40.402Z,95.50
2023-04-22T05:44:08.069Z,95.70
2023-04-22T05:46:35.161Z,95.80
2023-04-22T05:49:02.160Z,95.90
2023-04-22T05:51:29.147Z,95.90
2023-04-22T05:53:56.058Z,96.30
2023-04-22T05:56:23.035Z,96.30
2023-04-22T05:58:50.079Z,96.00
2023-04-22T06:01:17.032Z,95.80
2023-04-22T06:03:44.322Z,95.70
2023-04-22T06:06:11.593Z,96.00
2023-04-22T06:08:38.587Z,96.50
2023-04-22T06:11:05.613Z,96.20
2023-04-22T06:13:32.761Z,95.80
2023-04-22T06:15:59.829Z,96.00
2023-04-22T06:18:28.116Z,96.00
2023-04-22T06:20:55.803Z,96.00
2023-04-22T06:23:22.996Z,96.10
2023-04-22T06:25:50.006Z,96.00
2023-04-22T06:28:16.982Z,96.30
2023-04-22T06:30:44.206Z,96.30
2023-04-22T06:33:11.458Z,96.70
2023-04-22T06:35:38.501Z,96.70
2023-04-22T06:38:05.508Z,96.60
2023-04-22T06:40:32.422Z,96.70
2023-04-22T06:42:59.826Z,96.70
2023-04-22T06:45:26.806Z,97.00
2023-04-22T06:47:56.789Z,97.10
2023-04-22T06:50:26.945Z,97.20
2023-04-22T06:52:54.515Z,96.90
2023-04-22T06:55:21.728Z,97.10
2023-04-22T06:57:48.923Z,97.00
2023-04-22T07:03:16.189Z,97.10
2023-04-22T07:05:46.348Z,97.50
2023-04-22T07:08:16.363Z,97.40
2023-04-22T07:11:05.092Z,97.40
2023-04-22T07:13:36.972Z,97.60
2023-04-22T07:16:17.063Z,97.60
2023-04-22T07:18:46.902Z,97.80
2023-04-22T07:21:22.246Z,97.90
2023-04-22T07:23:59.631Z,98.10
2023-04-22T07:27:19.597Z,98.00
2023-04-22T07:29:52.825Z,98.20
2023-04-22T07:32:26.843Z,98.20
2023-04-22T07:34:56.722Z,98.10
2023-04-22T07:37:24.942Z,98.00
2023-04-22T07:40:11.460Z,98.10
2023-04-22T07:42:52.335Z,98.00
2023-04-22T07:49:23.590Z,98.20
2023-04-22T07:51:59.361Z,98.30
2023-04-22T07:54:42.194Z,98.20
2023-04-22T08:03:55.499Z,98.50
2023-04-22T08:06:23.246Z,98.60
2023-04-22T08:08:50.668Z,98.50
2023-04-22T08:11:40.007Z,98.40
2023-04-22T08:16:50.570Z,98.30
2023-04-22T08:19:21.284Z,98.30
2023-04-22T08:22:00.315Z,98.10
2023-04-22T08:24:35.955Z,97.90
2023-04-22T08:27:05.631Z,97.20
2023-04-22T08:29:33.917Z,96.80
2023-04-22T08:32:08.783Z,96.60
2023-04-22T08:34:37.106Z,96.30
2023-04-22T08:37:04.410Z,96.30
2023-04-22T08:39:31.587Z,96.10
2023-04-22T08:41:58.892Z,96.00
2023-04-22T08:44:26.229Z,95.90
2023-04-22T08:46:53.445Z,95.90
2023-04-22T08:49:20.503Z,96.00
2023-04-22T08:51:48.850Z,95.80
2023-04-22T08:54:16.406Z,96.10
2023-04-22T08:56:44.593Z,96.00
2023-04-22T08:59:12.334Z,95.90
2023-04-22T09:01:41.293Z,94.60
2023-04-22T09:04:12.015Z,93.80
2023-04-22T09:06:39.196Z,92.90
2023-04-22T09:09:08.637Z,91.30
2023-04-22T09:11:36.406Z,91.50
2023-04-22T09:14:04.017Z,92.10
2023-04-22T09:16:32.124Z,92.80
2023-04-22T09:18:59.558Z,92.60
2023-04-22T09:21:30.080Z,92.50
2023-04-22T09:23:57.141Z,92.50
2023-04-22T09:26:24.941Z,91.90
2023-04-22T09:28:52.837Z,91.90
2023-04-22T09:31:21.175Z,91.80
2023-04-22T09:33:52.296Z,92.00
2023-04-22T09:36:24.197Z,92.40
2023-04-22T09:38:51.831Z,92.30
2023-04-22T09:41:19.064Z,92.10
2023-04-22T09:43:46.613Z,91.90
2023-04-22T09:46:14.156Z,90.90
2023-04-22T09:48:45.168Z,90.80
2023-04-22T09:51:17.061Z,90.80
2023-04-22T09:53:44.050Z,90.30
2023-04-22T09:56:11.427Z,91.10
2023-04-22T09:58:39.051Z,90.50
2023-04-22T10:01:06.409Z,90.00
2023-04-22T10:03:33.474Z,89.40
2023-04-22T10:06:00.519Z,87.50
2023-04-22T10:08:27.514Z,88.20
2023-04-22T10:10:54.476Z,89.40
2023-04-22T10:13:22.524Z,89.90
2023-04-22T10:15:51.770Z,90.10
2023-04-22T10:18:21.537Z,89.30
2023-04-22T10:20:48.887Z,88.40
2023-04-22T10:23:19.566Z,86.80
2023-04-22T10:26:05.311Z,87.20
2023-04-22T10:28:32.336Z,85.00
2023-04-22T10:30:59.489Z,85.10
2023-04-22T10:33:31.838Z,86.00
2023-04-22T10:36:10.973Z,87.50
2023-04-22T10:38:38.499Z,87.90
2023-04-22T10:41:05.955Z,88.40
2023-04-22T10:43:42.116Z,89.00
2023-04-22T10:46:29.040Z,88.90
2023-04-22T10:49:00.126Z,89.00
2023-04-22T10:51:45.946Z,89.90
2023-04-22T10:54:37.504Z,90.40
2023-04-22T10:57:04.568Z,89.90
2023-04-22T10:59:32.663Z,89.50
2023-04-22T11:02:03.231Z,88.20
2023-04-22T11:04:30.447Z,88.10
2023-04-22T11:07:17.321Z,88.90
2023-04-22T11:09:45.500Z,88.50
2023-04-22T11:12:31.291Z,88.50
2023-04-22T11:14:58.862Z,87.90
2023-04-22T11:17:26.159Z,88.30
2023-04-22T11:19:56.262Z,89.10
2023-04-22T11:22:26.236Z,88.60
2023-04-22T11:24:56.953Z,88.70
2023-04-22T11:27:26.918Z,88.90
2023-04-22T11:30:03.772Z,86.70
2023-04-22T11:32:31.371Z,87.00
2023-04-22T11:34:58.476Z,87.20
2023-04-22T11:37:25.520Z,87.40
2023-04-22T11:40:13.842Z,86.70
2023-04-22T11:42:39.562Z,87.10
2023-04-22T11:45:07.320Z,86.60
2023-04-22T11:47:35.324Z,86.80
2023-04-22T11:50:05.173Z,85.30
2023-04-22T11:53:01.567Z,84.90
2023-04-22T11:55:35.611Z,85.70
2023-04-22T11:58:03.124Z,85.20
2023-04-22T12:00:31.943Z,82.90
2023-04-22T12:03:07.904Z,83.10
2023-04-22T12:05:36.674Z,85.90
2023-04-22T12:08:06.417Z,85.90
2023-04-22T12:10:33.617Z,85.60
2023-04-22T12:13:01.956Z,86.60
2023-04-22T12:15:37.222Z,86.50
2023-04-22T12:18:04.645Z,85.70
2023-04-22T12:20:37.091Z,86.50
2023-04-22T12:23:04.458Z,87.20
2023-04-22T12:25:34.017Z,87.00
2023-04-22T12:28:01.356Z,87.30
2023-04-22T12:30:28.600Z,85.90
2023-04-22T12:32:55.720Z,86.00
2023-04-22T12:35:23.003Z,85.80
2023-04-22T12:37:50.708Z,84.10
2023-04-22T12:40:19.069Z,83.50
2023-04-22T12:42:46.172Z,82.60
2023-04-22T12:45:26.250Z,82.50
2023-04-22T12:47:57.439Z,83.30
2023-04-22T12:50:31.727Z,83.00
2023-04-22T12:52:58.851Z,83.30
2023-04-22T12:55:26.202Z,83.60
2023-04-22T12:57:53.623Z,83.40
2023-04-22T13:00:21.014Z,84.20
2023-04-22T13:02:48.775Z,83.70
2023-04-22T13:05:16.450Z,84.90
2023-04-22T13:07:45.432Z,85.00
2023-04-22T13:10:15.690Z,86.00
2023-04-22T13:12:43.603Z,86.20
2023-04-22T13:15:11.293Z,84.80
2023-04-22T13:17:38.995Z,84.30
2023-04-22T13:20:07.228Z,85.20
2023-04-22T13:22:34.332Z,85.60
2023-04-22T13:25:01.584Z,85.30
2023-04-22T13:27:28.744Z,85.60
2023-04-22T13:29:55.731Z,86.30
2023-04-22T13:32:22.890Z,85.20
2023-04-22T13:34:50.302Z,84.90
2023-04-22T13:37:19.448Z,85.70
2023-04-22T13:39:46.775Z,86.20
2023-04-22T13:42:14.025Z,87.00
2023-04-22T13:44:41.145Z,86.70
2023-04-22T13:47:08.241Z,86.50
2023-04-22T13:49:36.105Z,87.30
2023-04-22T13:52:03.469Z,87.20
2023-04-22T13:54:31.194Z,85.20
2023-04-22T13:56:58.611Z,84.80
2023-04-22T13:59:25.741Z,84.00
2023-04-22T14:01:53.120Z,85.80
2023-04-22T14:04:26.559Z,82.80
2023-04-22T14:07:03.773Z,83.70
2023-04-22T14:09:41.289Z,83.50
2023-04-22T14:12:14.193Z,84.10
2023-04-22T14:14:41.132Z,83.40
2023-04-22T14:17:08.332Z,82.00
2023-04-22T14:19:38.910Z,81.40
2023-04-22T14:22:06.501Z,78.90
2023-04-22T14:24:33.674Z,79.60
2023-04-22T14:27:03.506Z,79.60
2023-04-22T14:29:30.923Z,80.30
2023-04-22T14:31:58.192Z,78.80
2023-04-22T14:34:26.906Z,80.40
2023-04-22T14:36:54.182Z,80.20
2023-04-22T14:39:21.468Z,81.60
2023-04-22T14:41:48.838Z,80.80
2023-04-22T14:44:16.023Z,81.60
2023-04-22T14:46:43.013Z,85.70
2023-04-22T14:49:10.021Z,82.70
2023-04-22T14:51:37.299Z,83.30
2023-04-22T14:54:04.529Z,83.00
2023-04-22T14:56:31.520Z,83.20
2023-04-22T14:58:58.455Z,84.10
2023-04-22T15:01:25.650Z,83.00
2023-04-22T15:03:52.777Z,82.50
2023-04-22T15:06:20.010Z,83.50
2023-04-22T15:08:47.026Z,82.80
2023-04-22T15:11:13.927Z,84.10
2023-04-22T15:13:40.879Z,83.20
2023-04-22T15:16:07.927Z,84.00
2023-04-22T15:18:35.017Z,82.80
2023-04-22T15:21:03.302Z,84.10
2023-04-22T15:23:30.199Z,84.90
2023-04-22T15:25:57.130Z,85.20
2023-04-22T15:28:24.513Z,85.10
2023-04-22T15:30:51.537Z,84.70
2023-04-22T15:33:18.485Z,84.30
2023-04-22T15:35:47.487Z,84.20
2023-04-22T15:38:14.394Z,84.30
2023-04-22T15:40:41.348Z,84.60
2023-04-22T15:43:08.306Z,84.60
2023-04-22T15:45:35.671Z,85.20
2023-04-22T15:48:02.951Z,85.10
2023-04-22T15:50:29.872Z,86.00
2023-04-22T15:52:57.011Z,85.70
2023-04-22T15:55:24.042Z,85.40
2023-04-22T15:57:50.998Z,85.40
2023-04-22T16:00:18.202Z,85.40
2023-04-22T16:02:45.449Z,86.20
2023-04-22T16:05:13.898Z,87.00
2023-04-22T16:07:40.960Z,86.70
2023-04-22T16:10:08.944Z,87.20
2023-04-22T16:12:35.939Z,86.60
2023-04-22T16:15:02.950Z,84.30
2023-04-22T16:17:30.153Z,85.30
2023-04-22T16:19:57.183Z,84.50
2023-04-22T16:22:24.218Z,84.40
2023-04-22T16:24:51.143Z,84.20
2023-04-22T16:27:19.170Z,85.10
2023-04-22T16:29:46.404Z,84.80
2023-04-22T16:32:13.424Z,85.60
2023-04-22T16:34:40.323Z,86.00
2023-04-22T16:37:07.682Z,85.50
2023-04-22T16:39:34.622Z,85.10
2023-04-22T16:42:02.311Z,85.70
2023-04-22T16:44:29.266Z,86.20
2023-04-22T16:46:56.248Z,86.50
2023-04-22T16:49:23.236Z,86.40
2023-04-22T16:51:50.477Z,87.00
2023-04-22T16:54:17.417Z,87.30
2023-04-22T16:56:44.376Z,88.10
2023-04-22T16:59:11.337Z,88.60
2023-04-22T17:01:39.751Z,89.10
2023-04-22T17:04:08.669Z,89.10
2023-04-22T17:06:37.745Z,89.40
2023-04-22T17:09:07.060Z,88.80
2023-04-22T17:11:33.985Z,89.90
2023-04-22T17:14:00.986Z,90.00
2023-04-22T17:16:28.114Z,89.60
2023-04-22T17:18:55.192Z,89.40
2023-04-22T17:21:25.200Z,89.20
2023-04-22T17:23:52.242Z,89.20
2023-04-22T17:26:19.195Z,89.10
2023-04-22T17:28:46.160Z,89.00
2023-04-22T17:31:13.101Z,89.10
2023-04-22T17:33:41.093Z,89.30
2023-04-22T17:36:08.057Z,88.50
2023-04-22T17:38:35.043Z,88.50
2023-04-22T17:41:02.089Z,88.60
2023-04-22T17:43:29.026Z,88.20
2023-04-22T17:45:56.015Z,88.30
2023-04-22T17:48:22.940Z,88.40
2023-04-22T17:50:50.308Z,88.40
2023-04-22T17:53:17.477Z,88.10
2023-04-22T17:55:44.462Z,87.40
2023-04-22T17:58:11.343Z,86.90
2023-04-22T18:00:38.304Z,87.00
2023-04-22T18:03:05.734Z,86.50
2023-04-22T18:05:32.845Z,86.30
2023-04-22T18:08:02.575Z,86.40
2023-04-22T18:10:30.255Z,85.90
2023-04-22T18:12:57.210Z,85.50
2023-04-22T18:15:24.313Z,85.70
2023-04-22T18:17:51.479Z,86.30
2023-04-22T18:20:19.449Z,85.90
2023-04-22T18:22:47.666Z,86.00
2023-04-22T18:25:14.887Z,86.20
2023-04-22T18:27:41.803Z,85.80
2023-04-22T18:30:08.909Z,85.60
2023-04-22T18:32:36.174Z,85.70
2023-04-22T18:35:03.221Z,86.70
2023-04-22T18:37:30.892Z,87.50
2023-04-22T18:39:57.828Z,88.30
2023-04-22T18:42:24.769Z,88.80
2023-04-22T18:44:51.756Z,89.80
2023-04-22T18:47:18.667Z,89.80
2023-04-22T18:49:45.714Z,90.10
2023-04-22T18:52:12.685Z,90.20
2023-04-22T18:54:40.035Z,90.60
2023-04-22T18:57:07.197Z,90.30
2023-04-22T18:59:34.171Z,90.40
2023-04-22T19:02:01.160Z,90.60
2023-04-22T19:04:28.185Z,90.70
2023-04-22T19:06:57.030Z,90.90
2023-04-22T19:09:24.131Z,90.70
2023-04-22T19:11:51.034Z,90.70
2023-04-22T19:14:17.987Z,91.00
2023-04-22T19:16:44.913Z,90.90
2023-04-22T19:19:12.249Z,90.70
2023-04-22T19:21:39.461Z,90.50
2023-04-22T19:24:06.678Z,90.50
2023-04-22T19:26:33.842Z,90.50
2023-04-22T19:29:01.035Z,90.90
2023-04-22T19:31:28.660Z,90.70
2023-04-22T19:33:55.882Z,91.10
2023-04-22T19:36:22.824Z,90.90
2023-04-22T19:38:49.795Z,91.10
2023-04-22T19:41:16.737Z,91.10
2023-04-22T19:43:43.670Z,91.00
2023-04-22T19:46:10.813Z,91.20
2023-04-22T19:48:37.900Z,91.40
2023-04-22T19:51:05.455Z,91.30
2023-04-22T19:53:32.944Z,91.30
2023-04-22T19:55:59.922Z,91.50
2023-04-22T19:58:28.186Z,91.60
2023-04-22T20:00:55.304Z,91.60
2023-04-22T20:03:22.699Z,91.60
2023-04-22T20:05:50.343Z,91.70
2023-04-22T20:08:19.621Z,91.60
2023-04-22T20:10:49.167Z,91.50
2023-04-22T20:13:17.000Z,91.60
2023-04-22T20:15:44.466Z,91.50
2023-04-22T20:18:11.861Z,91.50
2023-04-22T20:20:45.880Z,91.10
2023-04-22T20:23:13.617Z,91.20
2023-04-22T20:25:42.220Z,91.10
2023-04-22T20:28:10.772Z,91.20
2023-04-22T20:30:37.734Z,91.10
2023-04-22T20:33:04.784Z,90.80
2023-04-22T20:35:32.103Z,91.00
2023-04-22T20:38:00.078Z,91.20
2023-04-22T20:40:27.300Z,91.50
2023-04-22T20:42:56.516Z,91.50
2023-04-22T20:45:23.453Z,91.40
2023-04-22T20:47:51.349Z,91.60
2023-04-22T20:50:18.974Z,91.80
2023-04-22T20:52:46.109Z,91.90
2023-04-22T20:55:13.438Z,91.80
2023-04-22T20:57:41.087Z,91.70
2023-04-22T21:00:08.521Z,92.00
2023-04-22T21:02:36.122Z,92.10
2023-04-22T21:05:05.377Z,92.10
2023-04-22T21:07:33.447Z,92.10
2023-04-22T21:10:00.612Z,92.30
2023-04-22T21:12:27.688Z,92.30
2023-04-22T21:14:54.816Z,92.50
2023-04-22T21:17:24.156Z,92.40
2023-04-22T21:19:51.203Z,92.40
2023-04-22T21:22:21.536Z,92.50
2023-04-22T21:24:49.590Z,92.40
2023-04-22T21:27:17.192Z,92.40
2023-04-22T21:29:44.693Z,92.60
2023-04-22T21:32:12.247Z,92.50
2023-04-22T21:34:39.869Z,92.50
2023-04-22T21:37:07.936Z,92.90
2023-04-22T21:39:35.217Z,92.50
2023-04-22T21:42:03.015Z,92.60
2023-04-22T21:44:30.012Z,92.50
2023-04-22T21:46:56.911Z,92.60
2023-04-22T21:49:23.800Z,92.60
2023-04-22T21:51:51.174Z,92.80
2023-04-22T21:54:18.239Z,92.60
2023-04-22T21:56:45.419Z,92.80
2023-04-22T21:59:12.406Z,92.70
2023-04-22T22:01:39.463Z,92.90
2023-04-22T22:04:06.504Z,92.70
2023-04-22T22:06:33.640Z,92.70
2023-04-22T22:09:01.011Z,92.70
2023-04-22T22:11:31.358Z,92.90
2023-04-22T22:13:58.828Z,92.90
2023-04-22T22:16:25.969Z,92.90
2023-04-22T22:18:53.040Z,92.90
2023-04-22T22:21:19.967Z,92.90
2023-04-22T22:23:46.926Z,93.00
2023-04-22T22:26:13.841Z,93.20
2023-04-22T22:28:40.862Z,93.30
2023-04-22T22:31:08.332Z,93.40
2023-04-22T22:33:35.357Z,93.60
2023-04-22T22:36:02.381Z,93.60
2023-04-22T22:38:29.428Z,93.60
2023-04-22T22:40:56.396Z,93.60
2023-04-22T22:43:23.430Z,93.50
2023-04-22T22:45:50.602Z,93.40
2023-04-22T22:48:17.627Z,93.40
2023-04-22T22:50:46.350Z,93.40
2023-04-22T22:53:13.537Z,93.40
2023-04-22T22:55:40.489Z,93.50
2023-04-22T22:58:07.487Z,93.50
2023-04-22T23:00:34.460Z,93.60
2023-04-22T23:03:01.543Z,93.50
2023-04-22T23:05:28.680Z,93.40
2023-04-22T23:07:55.782Z,93.10
2023-04-22T23:10:22.823Z,93.00
2023-04-22T23:12:49.782Z,93.10
2023-04-22T23:15:16.768Z,93.30
2023-04-22T23:17:43.767Z,93.20
2023-04-22T23:20:11.557Z,93.40
2023-04-22T23:22:42.206Z,93.50
2023-04-22T23:25:09.650Z,93.40
2023-04-22T23:27:36.769Z,93.40
